Endeavour — VNJC — position and weather

sailwx.info

Track history (hours):
 
Tides and Currents Weather Stations Pressure Air Temp Water Temp Dewpoint Dewpoint Depression Visibility Wind Speed Wind Dir Waves Ship Positions

Endeavour (Australia)

Ship's website: http://www.anmm.gov.au/

Last reported at 2019-Dec-06 20:48 UTC. Time now 2019-Dec-08 11:26 UTC.
Position S 40°13' E 172°56'.

Length 44 m; draft 3.9 m.

Type: Sailing vessel. MMSI: 503094000.

Date/timePositionNaut miles runAvg speedWind from/ knotsBaromVisibWave heightAir tempDewpointWater temp
2019-Dec-06 20:48S 40°13' E 172°56'3 3.2
2019-Dec-06 20:00S 40°14' E 172°59'2 3.3
2019-Dec-06 19:26S 40°15' E 173°02'5 3.6
2019-Dec-06 18:00S 40°17' E 173°08'4 3.8
2019-Dec-06 17:00S 40°18' E 173°12'4 3.7
2019-Dec-06 16:00S 40°20' E 173°17'6 4.1
2019-Dec-06 14:30S 40°23' E 173°24'2 4.6
2019-Dec-06 14:00S 40°23' E 173°27'5 4.7
2019-Dec-06 13:00S 40°26' E 173°32'2 4.7
2019-Dec-06 12:30S 40°26' E 173°35'2 4.2
2019-Dec-06 12:00S 40°27' E 173°38'4 3.6
2019-Dec-06 10:58S 40°29' E 173°42'12 3.1
2019-Dec-06 07:00S 40°35' E 173°56'1 2.4
2019-Dec-06 06:30S 40°36' E 173°58'5 2.4
2019-Dec-06 04:30S 40°37' E 174°04'9 3.5
2019-Dec-06 02:00S 40°46' E 174°03'2 3.6
2019-Dec-06 01:30S 40°48' E 174°03'12 4.0
2019-Dec-05 22:30S 40°48' E 174°19'10 3.5
2019-Dec-05 19:30S 40°49' E 174°33'2 2.4
2019-Dec-05 18:30S 40°51' E 174°34'3 2.9
2019-Dec-05 17:30S 40°54' E 174°33'3 3.4
2019-Dec-05 16:31S 40°57' E 174°33'4 3.7
2019-Dec-05 15:30S 41°01' E 174°32'8 4.1
2019-Dec-05 13:30S 41°09' E 174°30'2 4.3
2019-Dec-05 13:00S 41°11' E 174°30'14 3.5
2019-Dec-05 09:00S 41°24' E 174°25'8 2.7
2019-Dec-05 06:00S 41°25' E 174°36'1 2.5
2019-Dec-05 05:31S 41°24' E 174°37'1 2.3
2019-Dec-05 05:00S 41°23' E 174°38'10 3.3
2019-Dec-05 02:00S 41°17' E 174°48'1 1.1
2019-Dec-05 00:58S 41°17' E 174°47'0 0.0
2019-Dec-04 18:58S 41°17' E 174°47'0 0.0
2019-Dec-04 16:58S 41°17' E 174°47'0 0.0
2019-Dec-04 11:58S 41°17' E 174°47'0 0.0
2019-Dec-04 09:28S 41°17' E 174°47'0 0.0
2019-Dec-04 08:28S 41°17' E 174°47'0 0.0
2019-Dec-04 06:28S 41°17' E 174°47'0 0.0
2019-Dec-04 05:28S 41°17' E 174°47'0 0.0
2019-Dec-04 04:55S 41°17' E 174°47'0 0.0
2019-Dec-04 03:58S 41°17' E 174°47'0 0.0
2019-Dec-04 03:28S 41°17' E 174°47'0 0.0
2019-Dec-04 02:28S 41°17' E 174°47'0 0.0
2019-Dec-04 01:58S 41°17' E 174°47'0 0.0
2019-Dec-04 00:25S 41°17' E 174°47'0 0.0
2019-Dec-03 23:28S 41°17' E 174°47'0 0.0
2019-Dec-03 21:28S 41°17' E 174°47'0 0.0
2019-Dec-03 20:58S 41°17' E 174°47'0 0.0
2019-Dec-03 20:28S 41°17' E 174°47'0 0.0
2019-Dec-03 19:58S 41°17' E 174°47'  
2019-Nov-29 02:13S 41°17' E 174°47'0 0.0
2019-Nov-29 02:00S 41°17' E 174°47'2 1.5
2019-Nov-29 00:30S 41°16' E 174°50'3 1.1
2019-Nov-28 21:30S 41°20' E 174°51'7 4.7
2019-Nov-28 20:00S 41°26' E 174°52'2 4.3
2019-Nov-28 19:30S 41°27' E 174°55'7 0.4
2019-Nov-28 01:24S 41°25' E 175°03'6 4.6
2019-Nov-28 00:00S 41°29' E 174°56'13 5.4
2019-Nov-27 21:30S 41°27' E 174°38'3 5.9
2019-Nov-27 21:00S 41°25' E 174°35'3 5.7
2019-Nov-27 20:30S 41°24' E 174°31'3 6.4
2019-Nov-27 20:00S 41°24' E 174°27'3 6.9
2019-Nov-27 19:30S 41°23' E 174°23'6 2.8
2019-Nov-27 17:31S 41°21' E 174°16'2 5.0
2019-Nov-27 17:00S 41°19' E 174°19'2 4.5
2019-Nov-27 16:30S 41°17' E 174°20'6 5.9
2019-Nov-27 15:30S 41°12' E 174°26'8 7.5
2019-Nov-27 14:30S 41°07' E 174°32'3 6.2
2019-Nov-27 14:00S 41°04' E 174°34'5 5.2
2019-Nov-27 13:00S 41°00' E 174°39'12 3.9
2019-Nov-27 10:00S 40°50' E 174°47'1 3.0
2019-Nov-27 09:30S 40°49' E 174°48'3 2.9
2019-Nov-27 08:30S 40°47' E 174°50'2 1.2
2019-Nov-27 06:30S 40°44' E 174°51'11 3.7
2019-Nov-27 03:30S 40°47' E 174°37'4 4.4
2019-Nov-27 02:30S 40°48' E 174°31'19 5.5
2019-Nov-26 23:00S 40°51' E 174°06'2 3.7
2019-Nov-26 22:30S 40°51' E 174°04'5 4.9
2019-Nov-26 21:30S 40°56' E 174°02'  
Track history (hours):
 
Tides and Currents Weather Stations Pressure Air Temp Water Temp Dewpoint Dewpoint Depression Visibility Wind Speed Wind Dir Waves Ship Positions

Endeavour (Australia)

Ship's website: http://www.anmm.gov.au/

Last reported at 2019-Dec-06 20:48 UTC. Time now 2019-Dec-08 11:26 UTC.
Position S 40°13' E 172°56'.

Length 44 m; draft 3.9 m.

Type: Sailing vessel. MMSI: 503094000.

Date/timePositionNaut miles runAvg speedWind from/ knotsBaromVisibWave heightAir tempDewpointWater temp
2019-Dec-06 20:48S 40°13' E 172°56'3 3.2
2019-Dec-06 20:00S 40°14' E 172°59'2 3.3
2019-Dec-06 19:26S 40°15' E 173°02'5 3.6
2019-Dec-06 18:00S 40°17' E 173°08'4 3.8
2019-Dec-06 17:00S 40°18' E 173°12'4 3.7
2019-Dec-06 16:00S 40°20' E 173°17'6 4.1
2019-Dec-06 14:30S 40°23' E 173°24'2 4.6
2019-Dec-06 14:00S 40°23' E 173°27'5 4.7
2019-Dec-06 13:00S 40°26' E 173°32'2 4.7
2019-Dec-06 12:30S 40°26' E 173°35'2 4.2
2019-Dec-06 12:00S 40°27' E 173°38'4 3.6
2019-Dec-06 10:58S 40°29' E 173°42'12 3.1
2019-Dec-06 07:00S 40°35' E 173°56'1 2.4
2019-Dec-06 06:30S 40°36' E 173°58'5 2.4
2019-Dec-06 04:30S 40°37' E 174°04'9 3.5
2019-Dec-06 02:00S 40°46' E 174°03'2 3.6
2019-Dec-06 01:30S 40°48' E 174°03'12 4.0
2019-Dec-05 22:30S 40°48' E 174°19'10 3.5
2019-Dec-05 19:30S 40°49' E 174°33'2 2.4
2019-Dec-05 18:30S 40°51' E 174°34'3 2.9
2019-Dec-05 17:30S 40°54' E 174°33'3 3.4
2019-Dec-05 16:31S 40°57' E 174°33'4 3.7
2019-Dec-05 15:30S 41°01' E 174°32'8 4.1
2019-Dec-05 13:30S 41°09' E 174°30'2 4.3
2019-Dec-05 13:00S 41°11' E 174°30'14 3.5
2019-Dec-05 09:00S 41°24' E 174°25'8 2.7
2019-Dec-05 06:00S 41°25' E 174°36'1 2.5
2019-Dec-05 05:31S 41°24' E 174°37'1 2.3
2019-Dec-05 05:00S 41°23' E 174°38'10 3.3
2019-Dec-05 02:00S 41°17' E 174°48'1 1.1
2019-Dec-05 00:58S 41°17' E 174°47'0 0.0
2019-Dec-04 18:58S 41°17' E 174°47'0 0.0
2019-Dec-04 16:58S 41°17' E 174°47'0 0.0
2019-Dec-04 11:58S 41°17' E 174°47'0 0.0
2019-Dec-04 09:28S 41°17' E 174°47'0 0.0
2019-Dec-04 08:28S 41°17' E 174°47'0 0.0
2019-Dec-04 06:28S 41°17' E 174°47'0 0.0
2019-Dec-04 05:28S 41°17' E 174°47'0 0.0
2019-Dec-04 04:55S 41°17' E 174°47'0 0.0
2019-Dec-04 03:58S 41°17' E 174°47'0 0.0
2019-Dec-04 03:28S 41°17' E 174°47'0 0.0
2019-Dec-04 02:28S 41°17' E 174°47'0 0.0
2019-Dec-04 01:58S 41°17' E 174°47'0 0.0
2019-Dec-04 00:25S 41°17' E 174°47'0 0.0
2019-Dec-03 23:28S 41°17' E 174°47'0 0.0
2019-Dec-03 21:28S 41°17' E 174°47'0 0.0
2019-Dec-03 20:58S 41°17' E 174°47'0 0.0
2019-Dec-03 20:28S 41°17' E 174°47'0 0.0
2019-Dec-03 19:58S 41°17' E 174°47'  
2019-Nov-29 02:13S 41°17' E 174°47'0 0.0
2019-Nov-29 02:00S 41°17' E 174°47'2 1.5
2019-Nov-29 00:30S 41°16' E 174°50'3 1.1
2019-Nov-28 21:30S 41°20' E 174°51'7 4.7
2019-Nov-28 20:00S 41°26' E 174°52'2 4.3
2019-Nov-28 19:30S 41°27' E 174°55'7 0.4
2019-Nov-28 01:24S 41°25' E 175°03'6 4.6
2019-Nov-28 00:00S 41°29' E 174°56'13 5.4
2019-Nov-27 21:30S 41°27' E 174°38'3 5.9
2019-Nov-27 21:00S 41°25' E 174°35'3 5.7
2019-Nov-27 20:30S 41°24' E 174°31'3 6.4
2019-Nov-27 20:00S 41°24' E 174°27'3 6.9
2019-Nov-27 19:30S 41°23' E 174°23'6 2.8
2019-Nov-27 17:31S 41°21' E 174°16'2 5.0
2019-Nov-27 17:00S 41°19' E 174°19'2 4.5
2019-Nov-27 16:30S 41°17' E 174°20'6 5.9
2019-Nov-27 15:30S 41°12' E 174°26'8 7.5
2019-Nov-27 14:30S 41°07' E 174°32'3 6.2
2019-Nov-27 14:00S 41°04' E 174°34'5 5.2
2019-Nov-27 13:00S 41°00' E 174°39'12 3.9
2019-Nov-27 10:00S 40°50' E 174°47'1 3.0
2019-Nov-27 09:30S 40°49' E 174°48'3 2.9
2019-Nov-27 08:30S 40°47' E 174°50'2 1.2
2019-Nov-27 06:30S 40°44' E 174°51'11 3.7
2019-Nov-27 03:30S 40°47' E 174°37'4 4.4
2019-Nov-27 02:30S 40°48' E 174°31'19 5.5
2019-Nov-26 23:00S 40°51' E 174°06'2 3.7
2019-Nov-26 22:30S 40°51' E 174°04'5 4.9
2019-Nov-26 21:30S 40°56' E 174°02'  

Dump ship's entire track history